createdAt,value
2024-02-28T00:00:07.401Z,4.47
2024-02-28T00:02:34.257Z,9.13
2024-02-28T00:05:01.242Z,3.70
2024-02-28T00:07:28.311Z,7.03
2024-02-28T00:09:58.832Z,8.18
2024-02-28T00:12:28.578Z,5.90
2024-02-28T00:14:55.503Z,10.45
2024-02-28T00:17:22.701Z,5.72
2024-02-28T00:19:49.621Z,6.22
2024-02-28T00:22:16.801Z,11.85
2024-02-28T00:24:43.899Z,4.57
2024-02-28T00:27:10.854Z,4.35
2024-02-28T00:29:37.774Z,8.73
2024-02-28T00:32:04.818Z,8.18
2024-02-28T00:34:33.124Z,7.47
2024-02-28T00:37:00.066Z,6.88
2024-02-28T00:39:30.040Z,6.13
2024-02-28T00:41:57.173Z,9.80
2024-02-28T00:44:24.047Z,4.88
2024-02-28T00:46:50.890Z,5.72
2024-02-28T00:49:17.786Z,5.43
2024-02-28T00:51:45.121Z,5.60
2024-02-28T00:54:12.164Z,5.90
2024-02-28T00:56:39.186Z,8.98
2024-02-28T00:59:07.671Z,6.53
2024-02-28T01:01:34.984Z,7.13
2024-02-28T01:04:01.983Z,6.63
2024-02-28T01:06:28.976Z,9.93
2024-02-28T01:08:56.059Z,9.65
2024-02-28T01:11:23.177Z,9.90
2024-02-28T01:13:50.209Z,8.00
2024-02-28T01:16:17.811Z,9.02
2024-02-28T01:18:44.910Z,8.55
2024-02-28T01:21:12.158Z,6.50
2024-02-28T01:23:42.542Z,6.93
2024-02-28T01:27:12.247Z,10.05
2024-02-28T01:32:27.182Z,8.35
2024-02-28T01:35:59.850Z,10.77
2024-02-28T01:44:30.855Z,3.85
2024-02-28T01:47:17.004Z,5.25
2024-02-28T01:49:52.357Z,5.95
2024-02-28T01:52:26.713Z,7.22
2024-02-28T01:55:11.631Z,3.85
2024-02-28T01:58:00.422Z,6.53
2024-02-28T02:00:52.960Z,6.60
2024-02-28T02:03:28.754Z,4.07
2024-02-28T02:06:18.646Z,5.60
2024-02-28T02:15:25.240Z,5.75
2024-02-28T02:18:04.328Z,3.90
2024-02-28T02:20:41.658Z,5.72
2024-02-28T02:23:08.583Z,5.38
2024-02-28T02:25:35.502Z,8.10
2024-02-28T02:28:02.492Z,6.53
2024-02-28T02:30:29.562Z,7.65
2024-02-28T02:32:56.496Z,10.98
2024-02-28T02:35:23.385Z,6.88
2024-02-28T02:37:50.398Z,7.25
2024-02-28T02:40:17.378Z,5.15
2024-02-28T02:42:44.415Z,8.88
2024-02-28T02:45:11.762Z,6.43
2024-02-28T02:47:39.024Z,7.38
2024-02-28T02:50:06.821Z,6.45
2024-02-28T02:52:33.909Z,8.88
2024-02-28T02:55:00.814Z,9.27
2024-02-28T02:57:27.848Z,8.63
2024-02-28T02:59:54.786Z,9.57
2024-02-28T03:02:21.699Z,6.00
2024-02-28T03:04:48.452Z,6.25
2024-02-28T03:07:15.690Z,4.90
2024-02-28T03:09:42.576Z,10.55
2024-02-28T03:12:09.509Z,5.97
2024-02-28T03:14:36.647Z,13.15
2024-02-28T03:17:03.735Z,8.15
2024-02-28T03:19:30.690Z,6.88
2024-02-28T03:21:57.535Z,11.00
2024-02-28T03:24:24.396Z,8.98
2024-02-28T03:26:51.478Z,5.40
2024-02-28T03:29:18.314Z,8.95
2024-02-28T03:31:45.160Z,7.35
2024-02-28T03:34:12.114Z,5.90
2024-02-28T03:36:39.061Z,6.30
2024-02-28T03:39:05.933Z,7.90
2024-02-28T03:41:32.831Z,5.90
2024-02-28T03:43:59.702Z,4.57
2024-02-28T03:46:26.882Z,8.23
2024-02-28T03:48:54.035Z,7.93
2024-02-28T03:51:20.932Z,12.10
2024-02-28T03:53:48.021Z,7.63
2024-02-28T03:56:15.161Z,11.68
2024-02-28T03:58:42.033Z,11.30
2024-02-28T04:01:10.921Z,8.25
2024-02-28T04:03:37.910Z,12.85
2024-02-28T04:06:04.998Z,11.57
2024-02-28T04:08:31.857Z,12.43
2024-02-28T04:10:58.936Z,8.63
2024-02-28T04:13:25.924Z,9.68
2024-02-28T04:15:53.090Z,10.40
2024-02-28T04:18:20.161Z,13.18
2024-02-28T04:20:47.211Z,8.75
2024-02-28T04:23:14.228Z,11.90
2024-02-28T04:25:41.843Z,16.13
2024-02-28T04:28:10.068Z,10.85
2024-02-28T04:30:37.326Z,6.47
2024-02-28T04:33:04.573Z,10.80
2024-02-28T04:35:31.565Z,14.30
2024-02-28T04:37:58.553Z,6.60
2024-02-28T04:40:25.507Z,7.00
2024-02-28T04:42:52.425Z,16.05
2024-02-28T04:45:19.546Z,12.13
2024-02-28T04:47:46.452Z,7.25
2024-02-28T04:50:13.716Z,7.53
2024-02-28T04:52:40.839Z,6.13
2024-02-28T04:55:07.978Z,7.20
2024-02-28T04:57:34.929Z,9.50
2024-02-28T05:00:01.851Z,9.23
2024-02-28T05:02:28.783Z,11.52
2024-02-28T05:04:55.725Z,10.73
2024-02-28T05:07:23.628Z,9.52
2024-02-28T05:09:50.875Z,11.05
2024-02-28T05:12:18.155Z,5.78
2024-02-28T05:14:45.096Z,12.48
2024-02-28T05:17:12.273Z,7.75
2024-02-28T05:19:42.599Z,9.05
2024-02-28T05:22:10.764Z,6.20
2024-02-28T05:24:38.059Z,9.88
2024-02-28T05:27:22.231Z,9.63
2024-02-28T05:29:49.266Z,11.63
2024-02-28T05:32:16.281Z,8.90
2024-02-28T05:34:43.225Z,9.32
2024-02-28T05:37:10.262Z,11.48
2024-02-28T05:39:37.260Z,11.68
2024-02-28T05:42:04.666Z,10.00
2024-02-28T05:44:32.028Z,10.00
2024-02-28T05:46:58.915Z,10.63
2024-02-28T05:49:25.908Z,8.95
2024-02-28T05:51:52.838Z,11.73
2024-02-28T05:54:20.151Z,13.63
2024-02-28T05:56:47.227Z,10.23
2024-02-28T05:59:14.952Z,10.23
2024-02-28T06:01:41.886Z,13.75
2024-02-28T06:04:08.707Z,8.63
2024-02-28T06:06:35.609Z,10.73
2024-02-28T06:09:02.570Z,13.27
2024-02-28T06:11:30.126Z,12.23
2024-02-28T06:13:57.756Z,12.52
2024-02-28T06:16:24.588Z,8.93
2024-02-28T06:18:51.784Z,10.95
2024-02-28T06:21:18.644Z,9.32
2024-02-28T06:23:45.476Z,11.77
2024-02-28T06:26:17.745Z,11.05
2024-02-28T06:28:48.065Z,13.57
2024-02-28T06:31:18.014Z,11.45
2024-02-28T06:33:48.138Z,12.18
2024-02-28T06:36:15.652Z,13.68
2024-02-28T06:38:42.883Z,14.23
2024-02-28T06:41:09.766Z,12.75
2024-02-28T06:43:36.788Z,12.38
2024-02-28T06:46:03.954Z,13.07
2024-02-28T06:48:31.274Z,10.07
2024-02-28T06:50:59.075Z,9.27
2024-02-28T06:53:27.378Z,12.13
2024-02-28T06:55:54.334Z,10.20
2024-02-28T06:58:21.217Z,13.18
2024-02-28T07:00:51.986Z,10.77
2024-02-28T07:03:21.333Z,9.60
2024-02-28T07:05:48.274Z,12.20
2024-02-28T07:08:15.706Z,11.57
2024-02-28T07:10:44.775Z,12.02
2024-02-28T07:13:11.971Z,11.93
2024-02-28T07:15:40.189Z,10.90
2024-02-28T07:18:07.366Z,9.90
2024-02-28T07:20:34.749Z,10.02
2024-02-28T07:23:03.867Z,8.18
2024-02-28T07:25:32.540Z,11.45
2024-02-28T07:28:03.674Z,12.10
2024-02-28T07:30:30.774Z,12.82
2024-02-28T07:32:57.929Z,12.43
2024-02-28T07:35:25.720Z,10.77
2024-02-28T07:37:52.839Z,12.65
2024-02-28T07:40:19.860Z,12.65
2024-02-28T07:42:47.100Z,15.35
2024-02-28T07:45:14.757Z,12.70
2024-02-28T07:47:41.946Z,8.68
2024-02-28T07:50:09.114Z,11.15
2024-02-28T07:52:36.686Z,10.52
2024-02-28T07:55:04.091Z,8.95
2024-02-28T07:57:32.197Z,8.93
2024-02-28T07:59:59.095Z,6.18
2024-02-28T08:02:26.567Z,7.10
2024-02-28T08:04:53.821Z,8.80
2024-02-28T08:07:20.715Z,7.32
2024-02-28T08:09:47.737Z,7.65
2024-02-28T08:12:14.755Z,7.50
2024-02-28T08:14:41.563Z,9.82
2024-02-28T08:17:08.350Z,8.73
2024-02-28T08:19:36.568Z,11.80
2024-02-28T08:22:03.728Z,11.18
2024-02-28T08:24:31.312Z,9.63
2024-02-28T08:26:58.287Z,7.90
2024-02-28T08:29:25.547Z,8.93
2024-02-28T08:31:52.446Z,11.23
2024-02-28T08:34:20.062Z,10.65
2024-02-28T08:36:46.973Z,10.57
2024-02-28T08:39:14.186Z,12.27
2024-02-28T08:41:41.186Z,9.93
2024-02-28T08:44:08.049Z,8.68
2024-02-28T08:46:34.982Z,12.68
2024-02-28T08:49:04.693Z,8.57
2024-02-28T08:51:31.721Z,11.27
2024-02-28T08:54:00.989Z,8.13
2024-02-28T08:56:27.893Z,9.25
2024-02-28T08:58:54.854Z,11.98
2024-02-28T09:01:21.904Z,12.55
2024-02-28T09:03:48.931Z,13.50
2024-02-28T09:06:16.134Z,10.35
2024-02-28T09:08:43.392Z,10.27
2024-02-28T09:11:10.346Z,10.45
2024-02-28T09:13:40.524Z,13.15
2024-02-28T09:16:07.447Z,10.68
2024-02-28T09:18:34.928Z,11.52
2024-02-28T09:21:01.926Z,15.57
2024-02-28T09:23:28.876Z,13.23
2024-02-28T09:25:57.390Z,14.90
2024-02-28T09:28:24.335Z,14.23
2024-02-28T09:30:53.519Z,13.25
2024-02-28T09:33:21.484Z,15.85
2024-02-28T09:35:48.716Z,15.18
2024-02-28T09:38:15.763Z,15.23
2024-02-28T09:40:44.079Z,15.23
2024-02-28T09:43:19.415Z,15.63
2024-02-28T09:45:48.946Z,14.05
2024-02-28T09:48:17.100Z,15.43
2024-02-28T09:50:44.152Z,13.35
2024-02-28T09:53:11.761Z,14.93
2024-02-28T09:55:39.098Z,13.40
2024-02-28T09:58:06.087Z,10.43
2024-02-28T10:00:33.230Z,13.38
2024-02-28T10:03:00.465Z,14.32
2024-02-28T10:05:29.818Z,11.68
2024-02-28T10:07:56.852Z,10.88
2024-02-28T10:10:24.371Z,10.82
2024-02-28T10:12:52.039Z,8.45
2024-02-28T10:15:18.990Z,6.60
2024-02-28T10:17:46.285Z,5.88
2024-02-28T10:20:14.421Z,5.88
2024-02-28T10:22:43.379Z,6.72
2024-02-28T10:25:10.429Z,8.73
2024-02-28T10:27:37.901Z,5.85
2024-02-28T10:30:08.487Z,4.25
2024-02-28T10:32:37.689Z,4.63
2024-02-28T10:35:05.542Z,6.30
2024-02-28T10:37:32.683Z,3.72
2024-02-28T10:40:00.046Z,4.38
2024-02-28T10:42:28.441Z,5.30
2024-02-28T10:45:06.952Z,4.13
2024-02-28T10:47:42.423Z,5.75
2024-02-28T10:50:09.878Z,4.53
2024-02-28T10:52:36.865Z,2.78
2024-02-28T10:55:03.994Z,3.90
2024-02-28T10:57:31.432Z,3.53
2024-02-28T10:59:58.299Z,5.30
2024-02-28T11:02:25.477Z,5.00
2024-02-28T11:04:54.091Z,3.60
2024-02-28T11:07:21.989Z,4.35
2024-02-28T11:09:49.216Z,3.13
2024-02-28T11:12:29.526Z,2.58
2024-02-28T11:15:00.953Z,5.00
2024-02-28T11:17:32.606Z,2.10
2024-02-28T11:20:00.600Z,3.92
2024-02-28T11:22:31.149Z,2.80
2024-02-28T11:24:58.464Z,7.18
2024-02-28T11:27:26.122Z,2.80
2024-02-28T11:29:53.144Z,1.60
2024-02-28T11:32:20.146Z,3.17
2024-02-28T11:34:47.702Z,3.78
2024-02-28T11:37:15.080Z,2.28
2024-02-28T11:39:41.912Z,2.90
2024-02-28T11:42:16.662Z,3.25
2024-02-28T11:44:43.858Z,3.83
2024-02-28T11:47:13.517Z,2.35
2024-02-28T11:49:40.406Z,2.67
2024-02-28T11:52:07.676Z,2.65
2024-02-28T11:54:34.885Z,5.47
2024-02-28T11:57:01.886Z,2.72
2024-02-28T11:59:28.661Z,1.33
2024-02-28T12:01:57.022Z,5.57
2024-02-28T12:04:26.296Z,3.15
2024-02-28T12:06:53.693Z,2.33
2024-02-28T12:09:27.723Z,4.13
2024-02-28T12:12:02.313Z,2.65
2024-02-28T12:14:29.160Z,3.25
2024-02-28T12:16:55.989Z,3.25
2024-02-28T12:19:22.936Z,2.53
2024-02-28T12:21:49.910Z,5.10
2024-02-28T12:24:17.144Z,2.22
2024-02-28T12:26:44.008Z,2.58
2024-02-28T12:29:12.199Z,4.30
2024-02-28T12:31:39.233Z,3.63
2024-02-28T12:34:06.262Z,3.42
2024-02-28T12:36:34.046Z,3.55
2024-02-28T12:39:01.089Z,3.22
2024-02-28T12:41:29.248Z,2.03
2024-02-28T12:43:56.468Z,5.25
2024-02-28T12:46:23.452Z,5.28
2024-02-28T12:48:50.384Z,4.25
2024-02-28T12:51:42.568Z,3.10
2024-02-28T12:54:09.740Z,3.00
2024-02-28T12:56:37.546Z,3.22
2024-02-28T12:59:05.309Z,5.07
2024-02-28T13:01:32.455Z,7.15
2024-02-28T13:03:59.596Z,2.50
2024-02-28T13:06:26.730Z,4.55
2024-02-28T13:08:53.721Z,4.57
2024-02-28T13:11:23.918Z,6.25
2024-02-28T13:13:51.309Z,5.47
2024-02-28T13:16:18.579Z,2.63
2024-02-28T13:18:45.949Z,4.38
2024-02-28T13:21:13.261Z,6.60
2024-02-28T13:23:40.790Z,2.47
2024-02-28T13:26:07.979Z,2.90
2024-02-28T13:28:34.864Z,5.03
2024-02-28T13:31:01.877Z,4.10
2024-02-28T13:33:28.972Z,5.20
2024-02-28T13:35:55.942Z,7.20
2024-02-28T13:38:23.203Z,5.30
2024-02-28T13:40:50.973Z,1.67
2024-02-28T13:43:19.449Z,4.18
2024-02-28T13:45:50.311Z,4.28
2024-02-28T13:48:18.545Z,3.03
2024-02-28T13:50:46.507Z,5.13
2024-02-28T13:53:13.880Z,3.58
2024-02-28T13:55:40.807Z,3.30
2024-02-28T13:58:09.171Z,5.05
2024-02-28T14:00:36.278Z,1.90
2024-02-28T14:03:03.620Z,3.53
2024-02-28T14:05:30.548Z,8.05
2024-02-28T14:07:58.478Z,5.05
2024-02-28T14:10:25.961Z,4.35
2024-02-28T14:12:55.915Z,5.45
2024-02-28T14:15:24.439Z,4.53
2024-02-28T14:17:52.701Z,9.25
2024-02-28T14:20:19.877Z,4.55
2024-02-28T14:22:46.891Z,7.10
2024-02-28T14:25:18.135Z,6.90
2024-02-28T14:27:46.183Z,10.25
2024-02-28T14:30:14.227Z,9.07
2024-02-28T14:32:41.931Z,9.60
2024-02-28T14:35:09.541Z,4.75
2024-02-28T14:37:36.643Z,6.60
2024-02-28T14:40:11.021Z,9.50
2024-02-28T14:42:41.995Z,8.23
2024-02-28T14:45:09.911Z,6.75
2024-02-28T14:47:39.807Z,9.73
2024-02-28T14:50:09.351Z,7.80
2024-02-28T14:52:36.192Z,5.80
2024-02-28T14:55:03.558Z,8.05
2024-02-28T14:57:32.019Z,10.52
2024-02-28T14:59:59.437Z,6.25
2024-02-28T15:02:26.449Z,10.27
2024-02-28T15:04:53.290Z,10.27
2024-02-28T15:07:20.250Z,9.70
2024-02-28T15:09:47.496Z,11.18
2024-02-28T15:12:15.580Z,11.70
2024-02-28T15:14:42.912Z,11.23
2024-02-28T15:17:09.780Z,6.78
2024-02-28T15:19:36.729Z,6.85
2024-02-28T15:22:03.950Z,6.15
2024-02-28T15:24:31.314Z,9.18
2024-02-28T15:26:58.406Z,14.10
2024-02-28T15:29:28.722Z,10.13
2024-02-28T15:31:55.643Z,5.30
2024-02-28T15:34:22.853Z,9.55
2024-02-28T15:36:49.803Z,9.35
2024-02-28T15:39:17.301Z,10.38
2024-02-28T15:41:44.149Z,13.07
2024-02-28T15:44:10.998Z,8.10
2024-02-28T15:46:38.768Z,8.88
2024-02-28T15:49:06.018Z,5.32
2024-02-28T15:51:34.093Z,10.45
2024-02-28T15:54:01.016Z,7.50
2024-02-28T15:56:27.860Z,5.07
2024-02-28T15:58:54.718Z,11.82
2024-02-28T16:01:21.753Z,6.93
2024-02-28T16:03:48.645Z,10.73
2024-02-28T16:06:15.491Z,5.32
2024-02-28T16:08:42.890Z,10.10
2024-02-28T16:11:13.195Z,10.85
2024-02-28T16:13:40.890Z,4.20
2024-02-28T16:16:07.908Z,11.20
2024-02-28T16:18:34.947Z,4.72
2024-02-28T16:21:02.338Z,4.90
2024-02-28T16:23:29.417Z,6.20
2024-02-28T16:25:58.939Z,7.32
2024-02-28T16:28:26.363Z,5.78
2024-02-28T16:30:54.284Z,2.67
2024-02-28T16:33:24.947Z,5.72
2024-02-28T16:35:51.825Z,6.75
2024-02-28T16:38:18.646Z,4.13
2024-02-28T16:40:45.469Z,2.78
2024-02-28T16:43:12.377Z,3.28
2024-02-28T16:45:40.933Z,4.82
2024-02-28T16:48:10.289Z,3.78
2024-02-28T16:50:37.635Z,4.68
2024-02-28T16:53:04.915Z,1.92
2024-02-28T16:55:34.885Z,0.60
2024-02-28T16:58:04.269Z,2.03
2024-02-28T17:00:31.863Z,1.60
2024-02-28T17:03:00.549Z,0.60
2024-02-28T17:05:32.209Z,1.10
2024-02-28T17:07:59.625Z,0.85
2024-02-28T17:10:29.037Z,0.85
2024-02-28T17:12:59.994Z,0.75
2024-02-28T17:15:36.119Z,0.68
2024-02-28T17:18:04.634Z,1.27
2024-02-28T17:20:32.005Z,1.30
2024-02-28T17:22:58.790Z,1.05
2024-02-28T17:25:29.487Z,0.85
2024-02-28T17:27:56.884Z,1.05
2024-02-28T17:30:23.785Z,1.40
2024-02-28T17:32:51.520Z,1.65
2024-02-28T17:35:19.028Z,2.30
2024-02-28T17:37:46.125Z,1.60
2024-02-28T17:40:16.012Z,1.15
2024-02-28T17:42:43.064Z,2.10
2024-02-28T17:45:10.449Z,0.60
2024-02-28T17:47:38.043Z,2.35
2024-02-28T17:50:06.351Z,0.80
2024-02-28T17:52:33.221Z,1.10
2024-02-28T17:55:00.232Z,1.35
2024-02-28T17:57:36.754Z,1.35
2024-02-28T18:00:11.360Z,0.77
2024-02-28T18:02:38.379Z,1.80
2024-02-28T18:05:13.249Z,1.83
2024-02-28T18:10:27.113Z,1.05
2024-02-28T18:12:53.995Z,1.35
2024-02-28T18:15:21.232Z,1.08
2024-02-28T18:17:48.165Z,1.27
2024-02-28T18:20:15.362Z,0.77
2024-02-28T18:22:42.442Z,2.45
2024-02-28T18:25:12.042Z,1.58
2024-02-28T18:27:40.323Z,2.47
2024-02-28T18:30:08.999Z,1.30
2024-02-28T18:32:36.063Z,1.58
2024-02-28T18:35:05.160Z,1.40
2024-02-28T18:37:34.081Z,1.02
2024-02-28T18:40:01.194Z,1.77
2024-02-28T18:42:28.124Z,2.90
2024-02-28T18:44:58.304Z,2.63
2024-02-28T18:47:27.404Z,1.85
2024-02-28T18:49:56.151Z,2.33
2024-02-28T18:52:23.169Z,2.17
2024-02-28T18:54:50.586Z,1.48
2024-02-28T18:57:17.572Z,1.52
2024-02-28T18:59:44.440Z,2.08
2024-02-28T19:02:11.561Z,2.67
2024-02-28T19:04:38.784Z,1.80
2024-02-28T19:07:06.063Z,1.23
2024-02-28T19:09:33.649Z,2.42
2024-02-28T19:12:00.825Z,2.22
2024-02-28T19:14:27.703Z,3.20
2024-02-28T19:16:55.258Z,3.33
2024-02-28T19:19:22.214Z,3.10
2024-02-28T19:21:50.912Z,2.90
2024-02-28T19:24:18.628Z,3.28
2024-02-28T19:26:56.659Z,2.30
2024-02-28T19:29:24.397Z,5.45
2024-02-28T19:31:51.407Z,2.58
2024-02-28T19:34:19.723Z,1.90
2024-02-28T19:36:47.049Z,3.47
2024-02-28T19:39:16.571Z,3.13
2024-02-28T19:41:43.532Z,1.80
2024-02-28T19:44:13.032Z,1.50
2024-02-28T19:46:49.568Z,2.83
2024-02-28T19:49:17.431Z,2.83
2024-02-28T19:51:44.904Z,2.40
2024-02-28T19:54:12.293Z,3.35
2024-02-28T19:56:39.601Z,2.25
2024-02-28T19:59:06.729Z,3.20
2024-02-28T20:01:34.046Z,5.95
2024-02-28T20:04:01.184Z,1.92
2024-02-28T20:06:28.446Z,3.10
2024-02-28T20:08:56.542Z,3.78
2024-02-28T20:11:23.825Z,3.42
2024-02-28T20:13:51.411Z,2.00
2024-02-28T20:16:18.860Z,1.58
2024-02-28T20:18:46.083Z,2.03
2024-02-28T20:21:17.736Z,2.20
2024-02-28T20:23:49.422Z,3.47
2024-02-28T20:26:17.940Z,3.45
2024-02-28T20:28:44.821Z,1.98
2024-02-28T20:31:11.766Z,1.75
2024-02-28T20:33:39.057Z,2.03
2024-02-28T20:36:06.148Z,3.92
2024-02-28T20:38:34.910Z,1.88
2024-02-28T20:41:01.891Z,2.25
2024-02-28T20:43:28.892Z,1.48
2024-02-28T20:45:56.709Z,1.88
2024-02-28T20:48:23.783Z,1.73
2024-02-28T20:50:50.808Z,2.83
2024-02-28T20:53:20.188Z,2.22
2024-02-28T20:55:47.167Z,3.15
2024-02-28T20:58:14.361Z,3.58
2024-02-28T21:00:41.759Z,2.28
2024-02-28T21:03:08.787Z,3.38
2024-02-28T21:05:35.802Z,3.53
2024-02-28T21:08:02.605Z,2.22
2024-02-28T21:10:29.420Z,1.75
2024-02-28T21:12:56.421Z,3.28
2024-02-28T21:15:26.169Z,3.95
2024-02-28T21:17:53.278Z,2.45
2024-02-28T21:20:23.629Z,2.20
2024-02-28T21:22:57.559Z,1.52
2024-02-28T21:25:24.606Z,1.63
2024-02-28T21:27:52.363Z,1.73
2024-02-28T21:30:19.518Z,2.33
2024-02-28T21:32:46.491Z,2.13
2024-02-28T21:35:13.544Z,2.15
2024-02-28T21:37:41.146Z,2.17
2024-02-28T21:40:09.092Z,1.92
2024-02-28T21:42:36.233Z,3.15
2024-02-28T21:45:04.121Z,3.22
2024-02-28T21:47:31.114Z,2.83
2024-02-28T21:49:58.182Z,2.10
2024-02-28T21:52:25.375Z,2.65
2024-02-28T21:54:54.199Z,1.20
2024-02-28T21:57:27.098Z,2.78
2024-02-28T21:59:59.723Z,1.48
2024-02-28T22:02:27.022Z,0.80
2024-02-28T22:04:53.857Z,2.55
2024-02-28T22:07:20.700Z,1.52
2024-02-28T22:09:48.073Z,2.45
2024-02-28T22:12:15.126Z,1.88
2024-02-28T22:14:44.712Z,0.90
2024-02-28T22:17:11.490Z,1.42
2024-02-28T22:19:38.508Z,1.17
2024-02-28T22:22:05.810Z,1.10
2024-02-28T22:24:32.936Z,0.98
2024-02-28T22:27:00.202Z,1.20
2024-02-28T22:29:27.674Z,1.20
2024-02-28T22:31:54.670Z,1.90
2024-02-28T22:34:21.657Z,0.90
2024-02-28T22:36:49.041Z,1.25
2024-02-28T22:39:16.397Z,2.15
2024-02-28T22:41:43.388Z,1.13
2024-02-28T22:44:10.844Z,1.48
2024-02-28T22:46:40.680Z,0.98
2024-02-28T22:49:07.627Z,0.73
2024-02-28T22:51:34.889Z,2.25
2024-02-28T22:54:02.358Z,0.85
2024-02-28T22:56:29.326Z,1.83
2024-02-28T22:58:56.306Z,1.60
2024-02-28T23:01:23.395Z,2.75
2024-02-28T23:03:50.847Z,1.70
2024-02-28T23:06:18.050Z,1.35
2024-02-28T23:08:45.564Z,1.52
2024-02-28T23:11:12.670Z,1.30
2024-02-28T23:13:40.042Z,1.42
2024-02-28T23:16:11.127Z,1.75
2024-02-28T23:18:38.467Z,2.60
2024-02-28T23:21:07.786Z,1.77
2024-02-28T23:23:34.845Z,2.13
2024-02-28T23:26:03.649Z,1.25
2024-02-28T23:28:30.767Z,1.60
2024-02-28T23:30:58.015Z,1.65
2024-02-28T23:33:25.441Z,1.38
2024-02-28T23:35:52.588Z,2.35
2024-02-28T23:38:19.434Z,2.20
2024-02-28T23:40:46.540Z,1.50
2024-02-28T23:43:13.642Z,1.58
2024-02-28T23:45:40.695Z,2.08
2024-02-28T23:48:07.514Z,2.63
2024-02-28T23:50:34.772Z,2.92
2024-02-28T23:53:01.774Z,1.33
2024-02-28T23:55:28.938Z,2.10
2024-02-28T23:57:55.959Z,1.42
